Time;durP1;ratioP1;P1;durP2;ratioP2;P2;SDS_P1;SDS_P2;PMS_P1;PMS_P2;Temp;Humidity;BMP_temperature;BMP_pressure;BME280_temperature;BME280_humidity;BME280_pressure;Samples;Min_cycle;Max_cycle;Signal;HPM_P1;HPM_P2
2021/12/05 02:00:21;;;;;;;23.48;13.85;;;;;;;7.46;55.38;99567.13;4913196;23;96980;-80
2021/12/05 02:15:49;;;;;;;;;;;;;;;;;;;;;
2021/12/05 02:30:03;;;;;;;27.40;16.30;;;;;;;7.22;55.66;99569.81;4884481;28;97169;-81
2021/12/05 02:35:35;;;;;;;29.17;17.08;;;;;;;7.40;54.52;99567.38;4886362;28;98430;-79
2021/12/05 02:41:18;;;;;;;30.58;17.27;;;;;;;7.57;54.05;99568.38;4881311;28;97094;-79
2021/12/05 02:43:58;;;;;;;35.53;18.50;;;;;;;7.35;55.02;99569.34;4887999;28;97269;-80
2021/12/05 02:47:02;;;;;;;;;;;;;;;;;;;;;
2021/12/05 02:50:04;;;;;;;32.35;18.55;;;;;;;7.02;55.78;99577.63;4887885;28;124741;-79
2021/12/05 02:52:55;;;;;;;36.50;18.98;;;;;;;7.28;54.76;99592.38;4786184;29;97190;-79
2021/12/05 02:55:45;;;;;;;31.17;17.90;;;;;;;7.50;55.20;99600.22;4766653;29;98031;-79
2021/12/05 02:59:17;;;;;;;;;;;;;;;;;;;;;
2021/12/05 03:02:47;;;;;;;;;;;;;;;;;;;;;
2021/12/05 03:05:19;;;;;;;35.88;18.67;;;;;;;7.66;53.97;99606.56;4918970;23;112714;-80
2021/12/05 03:07:49;;;;;;;32.33;18.73;;;;;;;7.67;54.26;99604.81;4913170;28;96695;-80
2021/12/05 03:10:19;;;;;;;35.75;19.42;;;;;;;7.51;53.57;99608.06;4918936;28;99155;-80
2021/12/05 03:12:46;;;;;;;38.85;20.27;;;;;;;7.52;54.04;99615.03;4924392;28;97723;-80
2021/12/05 03:15:15;;;;;;;38.38;20.80;;;;;;;7.34;54.46;99612.31;4913616;28;97302;-80
2021/12/05 03:17:42;;;;;;;36.50;20.67;;;;;;;7.54;54.66;99618.47;4906509;28;96545;-80
2021/12/05 03:20:11;;;;;;;38.58;20.75;;;;;;;7.35;54.43;99609.59;4901392;28;98100;-80
2021/12/05 03:22:38;;;;;;;42.90;22.35;;;;;;;7.51;54.73;99618.56;4910424;28;98137;-80
2021/12/05 03:25:08;;;;;;;37.65;21.60;;;;;;;7.51;54.78;99628.22;4906877;28;96691;-79
2021/12/05 03:27:35;;;;;;;37.20;21.63;;;;;;;7.59;54.41;99629.63;4910680;28;96519;-81
2021/12/05 03:30:02;;;;;;;38.72;21.70;;;;;;;7.53;54.46;99619.38;4896646;28;101284;-80
2021/12/05 03:32:29;;;;;;;36.63;20.02;;;;;;;7.49;54.47;99617.78;4883378;28;96659;-80
2021/12/05 03:34:55;;;;;;;42.28;22.13;;;;;;;7.56;54.19;99616.59;4895410;28;96595;-81
2021/12/05 03:37:22;;;;;;;39.25;21.85;;;;;;;7.58;54.11;99624.44;4883622;28;96872;-81
2021/12/05 03:39:49;;;;;;;42.03;23.15;;;;;;;7.30;55.27;99624.69;4886942;28;98952;-80
2021/12/05 03:42:17;;;;;;;44.10;22.80;;;;;;;7.35;55.02;99637.66;4874877;28;99142;-79
2021/12/05 03:44:44;;;;;;;38.92;21.85;;;;;;;7.27;55.09;99643.22;4871283;28;96716;-80
2021/12/05 03:47:10;;;;;;;40.15;22.40;;;;;;;7.47;54.59;99639.81;4877266;28;96780;-78
2021/12/05 03:49:38;;;;;;;41.90;22.67;;;;;;;7.43;54.08;99648.69;4881363;28;99326;-79
2021/12/05 03:52:09;;;;;;;43.58;23.17;;;;;;;7.61;54.73;99659.31;4891984;28;98873;-79
2021/12/05 03:54:36;;;;;;;40.50;22.92;;;;;;;7.40;54.15;99657.59;4882914;28;97164;-79
2021/12/05 03:57:04;;;;;;;44.60;24.35;;;;;;;7.51;54.37;99665.03;4887256;28;96825;-79
2021/12/05 03:59:32;;;;;;;50.10;24.85;;;;;;;7.41;54.33;99668.97;4880800;28;97985;-80
2021/12/05 04:02:01;;;;;;;42.75;23.90;;;;;;;7.71;54.28;99683.50;4888360;28;99157;-79
2021/12/05 04:04:28;;;;;;;43.80;23.23;;;;;;;7.49;54.46;99685.25;4873003;28;96791;-79
2021/12/05 04:06:54;;;;;;;45.47;23.02;;;;;;;7.57;54.89;99694.56;4887426;28;97257;-79
2021/12/05 04:09:22;;;;;;;51.20;24.83;;;;;;;7.61;54.25;99690.88;4889450;28;101043;-79
2021/12/05 04:11:57;;;;;;;42.22;22.27;;;;;;;7.72;53.89;99692.25;4882820;28;101199;-80
2021/12/05 04:14:25;;;;;;;40.92;22.85;;;;;;;7.47;54.48;99703.75;4880820;28;96823;-79
2021/12/05 04:16:54;;;;;;;40.42;22.38;;;;;;;7.73;54.09;99699.22;4886428;28;97408;-80
2021/12/05 04:19:21;;;;;;;42.13;22.70;;;;;;;7.60;53.79;99697.09;4877648;28;98313;-80
2021/12/05 04:21:48;;;;;;;41.42;22.90;;;;;;;7.57;54.23;99698.97;4884899;28;100012;-80
2021/12/05 04:24:15;;;;;;;45.00;22.67;;;;;;;7.52;54.19;99691.25;4883512;28;96928;-80
2021/12/05 04:26:42;;;;;;;45.15;23.80;;;;;;;7.58;54.08;99690.16;4894076;28;98302;-81
2021/12/05 04:29:10;;;;;;;46.72;24.35;;;;;;;7.36;54.76;99692.78;4886844;28;99262;-80
2021/12/05 04:31:39;;;;;;;41.55;24.15;;;;;;;7.66;54.25;99692.50;4878697;28;98902;-81
2021/12/05 04:34:07;;;;;;;42.78;22.85;;;;;;;7.49;54.74;99699.25;4879674;28;97842;-81
2021/12/05 04:36:34;;;;;;;41.42;23.27;;;;;;;7.56;54.27;99699.88;4887337;28;96821;-80
2021/12/05 04:39:01;;;;;;;42.67;23.33;;;;;;;7.65;54.14;99694.25;4884702;28;99376;-79
2021/12/05 04:41:27;;;;;;;44.42;22.58;;;;;;;7.84;53.49;99684.69;4889985;28;96852;-80
2021/12/05 04:43:54;;;;;;;42.72;24.25;;;;;;;7.97;53.78;99687.69;4889730;28;96874;-80
2021/12/05 04:46:23;;;;;;;43.83;24.48;;;;;;;7.85;53.74;99690.81;4882252;28;96863;-80
2021/12/05 04:48:52;;;;;;;41.50;23.77;;;;;;;7.66;54.55;99700.38;4891482;28;98435;-80
2021/12/05 04:51:23;;;;;;;41.90;22.88;;;;;;;7.91;53.68;99699.31;4883236;28;99454;-79
2021/12/05 04:53:50;;;;;;;42.55;24.10;;;;;;;7.65;54.70;99701.28;4897330;28;97014;-80
2021/12/05 04:56:18;;;;;;;42.00;23.33;;;;;;;8.06;54.26;99705.72;4893781;28;96807;-81
2021/12/05 04:58:45;;;;;;;48.40;25.63;;;;;;;7.92;53.33;99705.44;4876248;28;100508;-82
2021/12/05 05:01:13;;;;;;;42.35;23.30;;;;;;;8.21;53.12;99707.69;4875762;28;100520;-80
2021/12/05 05:03:40;;;;;;;42.90;24.20;;;;;;;8.27;52.96;99703.97;4885768;28;96801;-80
2021/12/05 05:06:14;;;;;;;41.88;24.75;;;;;;;8.07;53.44;99696.91;4877164;28;96917;-80
2021/12/05 05:08:42;;;;;;;44.67;25.65;;;;;;;8.28;52.69;99690.72;4882281;28;100268;-80
2021/12/05 05:11:12;;;;;;;42.22;24.08;;;;;;;8.19;53.31;99703.44;4877440;28;99120;-80
2021/12/05 05:13:39;;;;;;;41.08;23.40;;;;;;;8.21;53.14;99694.53;4892188;28;96768;-80
2021/12/05 05:16:07;;;;;;;44.40;24.20;;;;;;;8.33;52.91;99704.59;4875514;28;96784;-81
2021/12/05 05:18:41;;;;;;;45.22;24.98;;;;;;;8.11;53.43;99713.41;4892321;28;98953;-80
2021/12/05 05:21:14;;;;;;;42.67;23.00;;;;;;;7.63;54.60;99711.00;4898990;28;99709;-80
2021/12/05 05:23:59;;;;;;;44.95;22.63;;;;;;;7.85;54.00;99712.72;4893629;28;97230;-80
2021/12/05 05:26:54;;;;;;;45.00;22.98;;;;;;;7.59;54.78;99716.41;4898246;28;96648;-80
2021/12/05 05:41:08;;;;;;;50.00;25.30;;;;;;;7.47;55.74;99747.56;4878690;28;98606;-80
2021/12/05 05:43:53;;;;;;;45.28;24.38;;;;;;;7.58;55.49;99756.75;4891859;28;98827;-80
2021/12/05 05:46:22;;;;;;;46.90;24.02;;;;;;;7.37;56.15;99762.81;4890834;28;97136;-80
2021/12/05 05:48:52;;;;;;;44.03;25.08;;;;;;;7.70;55.98;99763.28;4881809;28;96831;-80
2021/12/05 05:51:19;;;;;;;44.83;24.27;;;;;;;7.40;56.00;99762.72;4865975;28;98130;-81
2021/12/05 05:53:48;;;;;;;44.20;24.40;;;;;;;7.59;56.35;99771.59;4910900;28;98062;-80
2021/12/05 05:56:21;;;;;;;42.47;23.27;;;;;;;7.87;55.10;99762.63;4916600;28;96380;-81
2021/12/05 05:58:51;;;;;;;42.58;23.20;;;;;;;8.07;54.25;99767.97;4913537;28;96011;-80
2021/12/05 06:01:32;;;;;;;45.90;24.80;;;;;;;7.95;54.26;99763.16;4904625;28;98705;-80
2021/12/05 06:03:57;;;;;;;46.00;24.55;;;;;;;8.02;53.74;99764.63;4903044;28;97706;-81
2021/12/05 06:06:25;;;;;;;;;;;;;;;7.87;54.16;99762.63;4907212;28;96530;-80
2021/12/05 06:08:51;;;;;;;52.60;25.65;;;;;;;7.58;54.56;99761.13;4894797;28;97822;-80
2021/12/05 06:11:19;;;;;;;47.80;25.67;;;;;;;7.63;55.70;99763.59;4899003;28;98923;-80
2021/12/05 06:13:47;;;;;;;48.55;26.05;;;;;;;7.66;55.22;99772.22;4904110;28;98788;-80
2021/12/05 06:16:16;;;;;;;46.60;24.85;;;;;;;7.77;55.22;99782.31;4890705;28;97594;-78
2021/12/05 06:18:42;;;;;;;48.70;25.25;;;;;;;7.22;56.17;99786.22;4893998;28;97201;-80
2021/12/05 06:21:10;;;;;;;54.17;27.02;;;;;;;7.13;57.41;99785.63;4886661;28;99256;-80
2021/12/05 06:23:37;;;;;;;50.83;28.02;;;;;;;7.27;55.83;99776.38;4883978;28;98895;-80
2021/12/05 06:26:07;;;;;;;51.05;26.50;;;;;;;7.10;56.99;99774.34;4891464;28;96715;-80
2021/12/05 06:28:39;;;;;;;54.20;28.63;;;;;;;7.04;58.34;99785.09;4887527;28;97779;-79
2021/12/05 06:31:18;;;;;;;57.60;29.90;;;;;;;7.52;56.88;99798.19;4877489;28;98959;-79
2021/12/05 06:39:28;;;;;;;58.92;29.13;;;;;;;7.22;56.86;99808.91;4887677;28;97038;-80
2021/12/05 06:42:08;;;;;;;57.15;29.08;;;;;;;7.52;56.34;99819.22;4882582;28;99638;-80
2021/12/05 06:47:24;;;;;;;58.97;29.70;;;;;;;7.41;56.23;99835.41;4894073;28;96603;-81
2021/12/05 06:49:51;;;;;;;57.75;29.73;;;;;;;7.08;56.09;99839.25;4881020;28;96843;-82
2021/12/05 06:52:19;;;;;;;62.72;30.58;;;;;;;6.77;57.59;99832.41;4889793;28;98138;-80
2021/12/05 06:54:45;;;;;;;66.43;31.67;;;;;;;6.72;58.82;99839.59;4879530;28;99028;-80
2021/12/05 06:57:12;;;;;;;62.10;29.65;;;;;;;7.19;57.56;99860.72;4880667;28;96852;-80
2021/12/05 06:59:41;;;;;;;64.07;29.98;;;;;;;6.70;57.95;99853.69;4882358;28;97341;-80
2021/12/05 07:02:10;;;;;;;68.97;30.38;;;;;;;6.81;57.53;99851.56;4887714;28;98913;-79
2021/12/05 07:04:55;;;;;;;61.92;30.65;;;;;;;7.04;58.20;99861.25;4871073;28;99009;-80
2021/12/05 07:07:24;;;;;;;60.78;29.52;;;;;;;7.22;57.11;99873.75;4871918;28;96732;-81
2021/12/05 07:09:52;;;;;;;60.13;30.90;;;;;;;7.32;56.93;99877.78;4884899;28;98579;-81
2021/12/05 07:15:08;;;;;;;65.68;29.83;;;;;;;7.23;56.42;99878.09;4878348;28;97139;-80
2021/12/05 07:20:12;;;;;;;;;;;;;;;7.08;55.92;99886.53;4879387;28;98633;-81
2021/12/05 07:22:47;;;;;;;70.03;31.60;;;;;;;7.26;56.64;99888.50;4874061;28;99586;-81
2021/12/05 07:25:27;;;;;;;65.40;30.90;;;;;;;7.36;56.18;99897.75;4879313;28;99233;-82
2021/12/05 07:41:49;;;;;;;58.80;29.90;;;;;;;7.27;55.96;99916.50;4885386;28;96690;-81
2021/12/05 07:44:16;;;;;;;65.45;30.80;;;;;;;7.23;55.48;99917.50;4879422;28;99722;-81
2021/12/05 07:46:45;;;;;;;60.97;29.55;;;;;;;7.22;55.72;99930.72;4888749;28;101379;-81
2021/12/05 07:49:13;;;;;;;65.38;30.20;;;;;;;7.23;56.09;99935.91;4876595;28;96666;-81
2021/12/05 07:51:43;;;;;;;58.05;29.63;;;;;;;7.56;55.11;99942.59;4879793;28;96924;-81
2021/12/05 07:54:15;;;;;;;60.08;29.38;;;;;;;7.70;54.51;99942.09;4877696;28;100133;-79
2021/12/05 07:56:47;;;;;;;58.65;28.27;;;;;;;7.82;53.91;99943.41;4884201;28;98872;-81
2021/12/05 07:59:31;;;;;;;60.63;30.33;;;;;;;7.85;54.25;99961.72;4876897;28;96979;-80
2021/12/05 08:16:01;;;;;;;59.58;28.77;;;;;;;7.80;53.79;99961.03;4861488;28;97057;-81
2021/12/05 08:18:30;;;;;;;57.30;28.33;;;;;;;7.98;54.18;99955.97;4880287;28;98905;-81
2021/12/05 08:20:58;;;;;;;58.95;29.52;;;;;;;8.06;53.15;99955.69;4885762;28;96846;-81
2021/12/05 08:23:24;;;;;;;57.30;30.25;;;;;;;7.93;53.70;99952.66;4885136;28;97850;-81
2021/12/05 08:25:59;;;;;;;57.60;29.55;;;;;;;7.86;53.04;99959.06;4889646;28;97217;-82
2021/12/05 08:28:41;;;;;;;65.55;30.55;;;;;;;7.64;54.53;99963.34;4907410;28;98614;-80
2021/12/05 08:31:14;;;;;;;60.85;29.42;;;;;;;7.67;53.66;99967.66;4906898;28;95830;-81
2021/12/05 08:33:57;;;;;;;65.57;30.88;;;;;;;8.00;53.88;99982.22;4902412;28;96002;-81
2021/12/05 08:36:45;;;;;;;68.05;31.15;;;;;;;8.10;53.26;99974.81;4898720;28;98055;-79
2021/12/05 08:39:52;;;;;;;61.75;30.23;;;;;;;8.10;53.02;99967.78;4900154;28;96286;-80
2021/12/05 08:42:38;;;;;;;62.90;29.13;;;;;;;8.13;53.07;99972.97;4900250;28;96880;-81
2021/12/05 10:08:12;;;;;;;62.55;28.38;;;;;;;8.20;53.05;100063.06;4887695;28;97653;-80
2021/12/05 10:10:48;;;;;;;59.42;29.30;;;;;;;8.65;52.75;100053.47;4874251;28;98248;-80
2021/12/05 10:13:24;;;;;;;67.50;30.15;;;;;;;8.91;51.65;100060.34;4871013;28;96949;-79
2021/12/05 10:16:09;;;;;;;64.63;31.23;;;;;;;8.85;51.83;100068.50;4870940;28;99309;-81
2021/12/05 10:19:04;;;;;;;58.88;28.00;;;;;;;8.99;51.08;100078.50;4871912;28;98803;-81
2021/12/05 10:35:57;;;;;;;61.40;30.08;;;;;;;8.52;52.95;100075.06;4872739;28;96837;-80
2021/12/05 10:38:29;;;;;;;60.00;29.42;;;;;;;8.75;52.66;100080.28;4875644;28;99536;-79
2021/12/05 10:41:03;;;;;;;59.38;27.90;;;;;;;8.81;52.48;100077.41;4880711;28;98302;-80
2021/12/05 10:43:31;;;;;;;58.63;28.83;;;;;;;8.68;52.34;100086.72;4871331;28;96983;-79
2021/12/05 10:46:07;;;;;;;62.78;29.67;;;;;;;8.65;52.84;100092.97;4871127;28;97455;-80
2021/12/05 10:48:37;;;;;;;64.65;31.08;;;;;;;8.86;52.22;100090.44;4872349;28;98346;-82
2021/12/05 10:51:07;;;;;;;66.32;32.10;;;;;;;8.91;51.63;100096.38;4870904;28;99080;-81
2021/12/05 10:53:44;;;;;;;62.10;30.35;;;;;;;8.86;51.15;100090.44;4872640;28;98477;-82
2021/12/05 10:56:17;;;;;;;59.85;28.75;;;;;;;9.09;50.64;100087.75;4873794;28;97714;-80
2021/12/05 10:58:49;;;;;;;64.30;30.48;;;;;;;8.95;51.05;100090.06;4866700;28;99063;-81
2021/12/05 11:01:31;;;;;;;65.55;31.60;;;;;;;8.95;51.18;100082.16;4881003;28;100643;-81
2021/12/05 11:04:00;;;;;;;61.60;32.20;;;;;;;8.90;51.02;100089.38;4879181;28;97991;-79
2021/12/05 11:06:44;;;;;;;65.68;31.05;;;;;;;8.88;51.58;100086.81;4874302;28;96800;-79
2021/12/05 11:09:13;;;;;;;76.15;32.80;;;;;;;8.73;51.62;100092.66;4874353;28;99279;-80
2021/12/05 11:11:48;;;;;;;66.85;32.58;;;;;;;8.65;51.69;100100.00;4870905;28;97648;-82
2021/12/05 11:14:18;;;;;;;67.47;33.00;;;;;;;8.77;51.70;100105.69;4869468;28;99098;-80
2021/12/05 11:16:59;;;;;;;74.88;34.80;;;;;;;8.81;51.46;100106.41;4879134;28;96900;-80
2021/12/05 11:19:30;;;;;;;68.40;32.78;;;;;;;8.84;51.69;100106.31;4863889;28;102312;-79
2021/12/05 11:22:03;;;;;;;62.60;31.45;;;;;;;9.03;51.28;100104.66;4875416;28;98195;-77
2021/12/05 11:24:34;;;;;;;70.35;34.08;;;;;;;8.87;51.19;100106.16;4875908;28;97261;-79
2021/12/05 11:27:14;;;;;;;62.40;31.80;;;;;;;9.01;51.54;100108.25;4876855;28;97041;-80
2021/12/05 11:29:44;;;;;;;75.53;34.47;;;;;;;8.97;51.66;100118.09;4873608;28;98074;-80
2021/12/05 11:32:16;;;;;;;67.60;32.42;;;;;;;8.92;51.55;100116.53;4877373;28;98754;-79
2021/12/05 11:34:43;;;;;;;68.25;33.55;;;;;;;8.71;51.93;100120.84;4876530;28;97021;-82
2021/12/05 11:37:10;;;;;;;68.45;34.25;;;;;;;8.87;50.97;100106.16;4875599;28;97171;-81
2021/12/05 11:39:37;;;;;;;70.90;33.45;;;;;;;8.84;50.81;100114.19;4875886;28;99061;-80
2021/12/05 11:42:12;;;;;;;68.10;31.70;;;;;;;8.72;51.46;100115.53;4872643;28;98800;-80
2021/12/05 11:44:40;;;;;;;65.37;33.43;;;;;;;8.80;50.93;100125.75;4881481;28;96879;-80
2021/12/05 11:47:15;;;;;;;66.28;33.67;;;;;;;8.97;50.51;100118.09;4881128;28;96824;-79
2021/12/05 11:49:42;;;;;;;68.57;32.70;;;;;;;8.60;50.56;100115.97;4879482;28;98247;-81
2021/12/05 11:52:10;;;;;;;69.10;31.58;;;;;;;8.42;52.49;100127.19;4874947;28;101579;-79
2021/12/05 11:54:40;;;;;;;63.83;32.08;;;;;;;8.36;51.95;100123.00;4875203;28;98419;-79
2021/12/05 11:57:16;;;;;;;78.90;37.40;;;;;;;8.27;52.92;100110.13;4878707;28;96816;-80
2021/12/05 11:59:45;;;;;;;72.30;34.13;;;;;;;8.22;53.69;100114.72;4875463;28;98898;-80
2021/12/05 12:02:19;;;;;;;87.13;37.42;;;;;;;7.77;54.87;100113.69;4881211;28;99230;-80
2021/12/05 12:05:02;;;;;;;78.10;35.10;;;;;;;7.43;56.29;100109.53;4878991;28;99061;-82
2021/12/05 12:07:35;;;;;;;78.13;35.15;;;;;;;7.27;56.70;100118.84;4883793;28;96997;-80
2021/12/05 12:10:07;;;;;;;80.90;36.03;;;;;;;7.70;56.64;100114.78;4867775;28;99847;-78
2021/12/05 12:12:34;;;;;;;83.70;36.75;;;;;;;7.48;55.21;100107.63;4874303;28;97694;-80
2021/12/05 12:15:02;;;;;;;88.00;38.85;;;;;;;7.50;55.83;100115.47;4878039;28;97205;-80
2021/12/05 12:17:30;;;;;;;82.05;37.05;;;;;;;7.41;56.68;100116.66;4874235;28;96922;-81
2021/12/05 12:19:57;;;;;;;86.15;37.42;;;;;;;7.27;56.26;100118.84;4866257;28;99686;-81
2021/12/05 12:22:26;;;;;;;86.90;38.95;;;;;;;7.15;56.88;100119.25;4877521;28;100446;-81
2021/12/05 12:24:55;;;;;;;84.90;37.88;;;;;;;7.14;57.43;100118.38;4873542;28;99085;-80
2021/12/05 12:27:23;;;;;;;85.50;36.63;;;;;;;7.49;56.88;100119.00;4879473;28;99751;-78
2021/12/05 12:29:52;;;;;;;77.63;35.38;;;;;;;7.69;55.92;100132.34;4873682;28;98056;-80
2021/12/05 12:32:23;;;;;;;78.72;36.83;;;;;;;8.13;54.90;100136.09;4872038;28;99195;-78
2021/12/05 12:34:58;;;;;;;78.88;36.63;;;;;;;8.08;54.06;100130.13;4882523;28;96845;-79
2021/12/05 12:37:25;;;;;;;80.25;36.65;;;;;;;7.45;55.94;100133.16;4877689;28;96904;-81
2021/12/05 12:39:52;;;;;;;78.18;35.42;;;;;;;7.71;56.32;100125.28;4881907;28;99391;-80
2021/12/05 12:42:23;;;;;;;72.75;33.90;;;;;;;7.96;53.97;100131.41;4878287;28;97824;-82
2021/12/05 12:45:10;;;;;;;68.55;34.10;;;;;;;7.49;54.64;100145.28;4879515;28;96973;-82
2021/12/05 12:47:40;;;;;;;66.00;32.15;;;;;;;7.34;55.03;100144.03;4875451;28;96799;-81
2021/12/05 12:50:39;;;;;;;64.18;31.13;;;;;;;7.37;55.81;100151.81;4874942;28;99230;-81
2021/12/05 12:53:13;;;;;;;73.30;34.10;;;;;;;7.57;54.56;100157.28;4881654;28;99255;-80
2021/12/05 12:55:43;;;;;;;73.43;33.97;;;;;;;7.83;54.02;100152.94;4861639;28;97435;-80
2021/12/05 12:58:11;;;;;;;73.30;32.15;;;;;;;7.64;53.92;100163.19;4864120;28;98214;-78
2021/12/05 13:00:41;;;;;;;73.70;33.60;;;;;;;7.69;54.83;100157.78;4859288;28;98540;-77
2021/12/05 13:03:27;;;;;;;66.57;31.90;;;;;;;7.94;53.82;100163.97;4878351;28;98001;-78
2021/12/05 13:11:49;;;;;;;72.97;35.53;;;;;;;8.08;52.78;100164.31;4876333;28;97972;-78
2021/12/05 13:14:16;;;;;;;81.07;39.15;;;;;;;8.09;52.93;100160.78;4878521;28;100437;-79
2021/12/05 13:16:44;;;;;;;85.78;38.60;;;;;;;7.94;53.32;100158.72;4876671;28;97251;-79
2021/12/05 13:19:14;;;;;;;77.93;36.65;;;;;;;7.84;53.25;100158.16;4860098;28;96813;-78
2021/12/05 13:21:44;;;;;;;83.28;37.40;;;;;;;8.01;52.53;100168.09;4872107;28;99253;-80
2021/12/05 13:24:25;;;;;;;75.07;35.92;;;;;;;8.11;52.52;100177.41;4870436;28;99239;-78
2021/12/05 13:26:54;;;;;;;76.22;36.40;;;;;;;8.18;52.45;100178.03;4872398;28;99719;-78
2021/12/05 13:29:23;;;;;;;75.28;36.08;;;;;;;8.45;51.75;100181.53;4858096;28;99898;-80
2021/12/05 13:38:43;;;;;;;79.50;37.28;;;;;;;8.46;50.19;100173.56;4837804;28;98276;-81
2021/12/05 13:41:12;;;;;;;131.45;60.25;;;;;;;8.36;50.86;100182.69;4877346;28;98151;-81
2021/12/05 13:43:40;;;;;;;139.98;62.03;;;;;;;8.02;51.74;100186.44;4877001;28;97759;-81
2021/12/05 13:49:35;;;;;;;77.45;35.58;;;;;;;8.10;52.15;100188.81;4839972;28;98233;-81
2021/12/05 13:52:31;;;;;;;76.93;36.00;;;;;;;8.19;51.59;100192.94;4874029;28;98659;-81
2021/12/05 13:55:44;;;;;;;78.38;36.17;;;;;;;7.64;52.65;100199.16;4878827;28;98232;-82
2021/12/05 13:58:30;;;;;;;83.50;39.40;;;;;;;7.09;54.85;100195.59;4869660;28;99761;-81
2021/12/05 14:01:11;;;;;;;81.63;37.20;;;;;;;7.05;55.64;100212.38;4880429;28;97725;-81
2021/12/05 14:04:03;;;;;;;80.97;37.28;;;;;;;7.10;55.63;100206.06;4881898;28;96959;-82
2021/12/05 14:07:00;;;;;;;80.70;39.17;;;;;;;7.32;55.33;100219.44;4887277;28;98731;-81
2021/12/05 14:10:00;;;;;;;82.85;36.92;;;;;;;7.81;54.21;100221.34;4883590;28;98052;-82
2021/12/05 14:12:46;;;;;;;84.20;38.83;;;;;;;7.26;54.54;100232.75;4880406;28;97220;-82
2021/12/05 14:15:52;;;;;;;;;;;;;;;;;;;;;
2021/12/05 14:18:35;;;;;;;80.85;38.17;;;;;;;6.74;55.61;100250.03;4892797;28;126882;-83
2021/12/05 14:21:28;;;;;;;81.88;38.10;;;;;;;6.58;56.59;100253.09;4895451;28;99828;-81
2021/12/05 14:24:02;;;;;;;84.78;38.30;;;;;;;6.70;56.16;100253.63;4892414;28;96636;-82
2021/12/05 14:26:39;;;;;;;83.90;37.65;;;;;;;7.02;56.19;100268.47;4874841;28;96683;-82
2021/12/05 14:29:25;;;;;;;82.68;37.20;;;;;;;7.19;55.00;100275.88;4884932;28;99176;-82
2021/12/05 14:38:01;;;;;;;82.28;35.30;;;;;;;7.30;54.09;100299.22;4858782;28;96831;-82
2021/12/05 14:40:41;;;;;;;78.38;35.30;;;;;;;7.44;54.04;100311.06;4887079;28;101614;-82
2021/12/05 14:43:37;;;;;;;;;;;;;;;;;;;;;
2021/12/05 14:46:31;;;;;;;75.47;34.83;;;;;;;7.31;53.90;100328.09;4878915;28;117326;-81
2021/12/05 14:49:20;;;;;;;75.32;35.55;;;;;;;7.74;52.82;100332.97;4896425;28;96579;-81
2021/12/05 14:52:40;;;;;;;;;;;;;;;;;;;;;
2021/12/05 14:55:36;;;;;;;72.32;35.25;;;;;;;7.21;53.27;100345.03;4898929;28;127225;-82
2021/12/05 15:02:00;;;;;;;72.38;33.70;;;;;;;7.24;53.96;100331.78;4801284;28;97139;-82
2021/12/05 15:04:31;;;;;;;65.03;31.17;;;;;;;7.58;52.64;100355.34;4899711;23;100028;-78
2021/12/05 15:06:58;;;;;;;67.50;32.53;;;;;;;7.71;52.28;100351.44;4883706;28;97310;-77
2021/12/05 15:09:29;;;;;;;69.90;33.55;;;;;;;7.79;52.15;100354.72;4884709;28;96852;-77
2021/12/05 15:12:03;;;;;;;68.95;32.33;;;;;;;7.63;52.44;100350.81;4875924;28;97787;-78
2021/12/05 15:14:31;;;;;;;68.03;33.35;;;;;;;7.87;52.19;100355.34;4871411;28;99226;-78
2021/12/05 15:17:06;;;;;;;72.68;35.22;;;;;;;7.68;51.81;100361.22;4873727;28;97770;-79
2021/12/05 15:19:33;;;;;;;78.68;34.55;;;;;;;7.58;52.02;100363.22;4881648;28;96824;-77
2021/12/05 15:22:03;;;;;;;74.78;34.85;;;;;;;7.33;52.42;100370.97;4874102;28;97064;-78
2021/12/05 15:24:30;;;;;;;73.80;33.67;;;;;;;7.22;53.31;100375.63;4891304;28;99891;-79
2021/12/05 15:26:59;;;;;;;73.28;35.33;;;;;;;7.09;53.62;100374.25;4881392;28;98995;-78
2021/12/05 15:29:28;;;;;;;76.38;34.85;;;;;;;7.09;53.72;100376.88;4895074;28;96818;-78
2021/12/05 15:31:56;;;;;;;79.50;34.05;;;;;;;6.75;54.87;100387.44;4877211;28;97238;-78
2021/12/05 15:34:30;;;;;;;78.25;35.13;;;;;;;6.66;54.47;100383.28;4880358;28;99244;-77
2021/12/05 15:36:59;;;;;;;71.60;35.28;;;;;;;6.27;56.71;100377.22;4885100;28;99206;-79
2021/12/05 15:39:30;;;;;;;79.07;35.65;;;;;;;6.79;56.04;100383.81;4876644;28;97292;-78
2021/12/05 15:41:59;;;;;;;75.55;35.33;;;;;;;6.79;55.33;100382.06;4878872;28;97164;-78
2021/12/05 15:44:36;;;;;;;76.38;34.88;;;;;;;7.02;55.45;100370.09;4880295;28;99045;-80
2021/12/05 15:47:11;;;;;;;81.15;36.17;;;;;;;6.84;54.75;100376.69;4878423;28;99259;-77
2021/12/05 15:49:59;;;;;;;73.40;34.75;;;;;;;6.88;55.90;100373.09;4877947;28;97165;-78
2021/12/05 15:52:31;;;;;;;77.80;35.97;;;;;;;6.74;55.49;100381.31;4882256;28;98501;-78
2021/12/05 15:54:59;;;;;;;86.38;38.75;;;;;;;6.80;55.36;100391.66;4876751;28;99206;-78
2021/12/05 15:57:32;;;;;;;81.45;37.50;;;;;;;6.79;56.19;100389.94;4893103;28;98744;-79
2021/12/05 16:00:02;;;;;;;79.25;35.67;;;;;;;7.08;55.09;100383.06;4902283;28;96713;-78
2021/12/05 16:02:28;;;;;;;83.70;37.65;;;;;;;7.17;54.43;100386.28;4902105;28;96733;-77
2021/12/05 16:04:57;;;;;;;74.53;34.85;;;;;;;7.42;54.06;100390.84;4900320;28;97899;-77
2021/12/05 16:07:27;;;;;;;75.90;35.38;;;;;;;7.29;54.37;100390.34;4889412;28;98660;-78
2021/12/05 16:10:09;;;;;;;74.50;34.60;;;;;;;7.51;53.69;100396.72;4880312;28;97241;-77
2021/12/05 16:12:39;;;;;;;80.97;34.88;;;;;;;7.80;52.26;100398.53;4872936;28;97203;-78
2021/12/05 16:15:06;;;;;;;81.80;36.83;;;;;;;7.61;52.38;100405.22;4875634;28;97904;-79
2021/12/05 16:17:33;;;;;;;83.53;35.63;;;;;;;7.08;54.42;100418.09;4881104;28;99148;-79
2021/12/05 16:20:11;;;;;;;82.82;35.10;;;;;;;7.53;53.75;100415.97;4881429;28;96955;-79
2021/12/05 16:23:16;;;;;;;88.22;37.42;;;;;;;7.39;53.67;100412.00;4876367;28;96861;-78
2021/12/05 16:25:58;;;;;;;86.63;37.13;;;;;;;7.43;53.28;100419.72;4835350;29;98915;-78
2021/12/05 16:28:26;;;;;;;85.03;35.47;;;;;;;7.44;53.14;100413.56;4874925;28;98800;-78
2021/12/05 16:30:59;;;;;;;86.72;36.55;;;;;;;7.23;54.24;100414.16;4876321;28;96884;-77
2021/12/05 16:33:26;;;;;;;81.57;35.75;;;;;;;7.36;54.38;100422.56;4878561;28;96760;-77
2021/12/05 16:35:54;;;;;;;85.03;35.40;;;;;;;7.54;53.59;100424.72;4879056;28;99156;-77
2021/12/05 16:38:27;;;;;;;84.72;35.80;;;;;;;7.69;53.87;100426.03;4876211;28;101415;-77
2021/12/05 16:40:58;;;;;;;90.15;36.80;;;;;;;7.49;53.08;100430.06;4880924;28;96861;-78
2021/12/05 16:43:26;;;;;;;89.90;36.17;;;;;;;7.55;52.87;100437.78;4888065;28;96754;-79
2021/12/05 16:45:56;;;;;;;87.38;37.67;;;;;;;7.21;54.18;100439.63;4879725;28;99484;-78
2021/12/05 16:48:23;;;;;;;94.78;38.53;;;;;;;7.14;54.56;100444.19;4876781;28;98481;-77
2021/12/05 16:50:50;;;;;;;97.32;38.80;;;;;;;7.16;54.69;100437.13;4870553;28;96676;-76
2021/12/05 16:53:31;;;;;;;91.43;37.53;;;;;;;7.07;55.49;100442.63;4883286;28;97112;-77
2021/12/05 16:56:00;;;;;;;100.15;38.35;;;;;;;7.05;54.74;100449.69;4886279;28;98883;-76
2021/12/05 16:58:27;;;;;;;93.03;38.70;;;;;;;6.86;55.83;100447.56;4877711;28;98985;-77
2021/12/05 17:00:55;;;;;;;98.65;39.10;;;;;;;7.07;54.97;100453.13;4882421;28;96628;-76
2021/12/05 17:03:26;;;;;;;102.38;40.03;;;;;;;6.94;55.75;100462.22;4884128;28;96875;-76
2021/12/05 17:05:59;;;;;;;94.15;38.70;;;;;;;7.06;54.91;100458.41;4876497;28;99346;-76
2021/12/05 17:08:28;;;;;;;91.80;37.85;;;;;;;6.88;55.38;100456.28;4895810;28;99047;-77
2021/12/05 17:10:57;;;;;;;99.30;39.10;;;;;;;6.92;56.25;100452.66;4887282;28;96823;-78
2021/12/05 17:13:26;;;;;;;100.82;40.85;;;;;;;7.00;55.54;100461.22;4883378;28;96798;-76
2021/12/05 17:16:00;;;;;;;95.07;39.30;;;;;;;7.20;54.87;100462.44;4874588;28;102028;-76
2021/12/05 17:18:31;;;;;;;100.75;41.22;;;;;;;7.38;54.98;100458.44;4890813;28;98860;-75
2021/12/05 17:21:01;;;;;;;95.03;38.58;;;;;;;7.58;53.89;100464.03;4884111;28;96770;-77
2021/12/05 17:23:32;;;;;;;99.80;38.88;;;;;;;7.67;53.54;100456.78;4871682;28;97364;-76
2021/12/05 17:26:09;;;;;;;104.78;41.42;;;;;;;7.40;53.41;100461.91;4882423;28;99267;-78